EDT,Max TemperatureF,Mean TemperatureF,Min TemperatureF,Max Dew PointF,MeanDew PointF,Min DewpointF,Max Humidity, Mean Humidity, Min Humidity, Max Sea Level PressureIn, Mean Sea Level PressureIn, Min Sea Level PressureIn, Max VisibilityMiles, Mean VisibilityMiles, Min VisibilityMiles, Max Wind SpeedMPH, Mean Wind SpeedMPH, Max Gust SpeedMPH,PrecipitationIn, CloudCover, Events, WindDirDegrees
2014-4-1,82,60,37,43,34,23,93,45,11,30.17,30.09,30.01,10,10,10,9,1,,0.00,0,,186
2014-4-2,89,74,59,41,34,23,40,26,9,30.09,30.04,29.99,10,10,10,9,4,,0.00,0,,218
2014-4-3,78,62,46,54,47,37,93,53,29,30.09,30.01,29.93,10,10,10,7,3,,0.00,1,,168
2014-4-4,86,72,59,55,51,37,77,48,18,29.91,29.83,29.72,10,10,10,14,5,23,0.00,0,,205
2014-4-5,77,66,55,54,39,28,59,37,20,30.09,29.94,29.79,10,10,7,10,3,,0.00,1,,312
2014-4-6,62,54,46,41,32,27,62,43,31,30.23,30.17,30.09,10,10,10,14,7,20,0.00,3,,60
2014-4-7,68,57,46,61,48,28,94,80,38,30.13,29.90,29.68,10,8,1,14,5,21,0.89,6,Rain,131
2014-4-8,69,61,53,63,53,39,88,65,40,29.69,29.63,29.59,10,10,5,15,7,26,0.00,4,,266
2014-4-9,69,60,50,46,39,32,77,50,25,30.10,29.86,29.69,10,10,10,9,3,17,0.00,5,Rain,321
2014-4-10,73,57,41,46,38,30,87,53,22,30.29,30.19,30.11,10,10,10,12,2,20,0.00,0,,196
2014-4-11,77,64,51,48,43,41,67,47,28,30.23,30.15,30.05,10,10,10,14,6,25,0.00,0,,207
2014-4-12,78,66,53,52,49,46,77,56,34,30.25,30.17,30.13,10,10,7,10,4,,0.00,0,,161
2014-4-13,78,66,55,59,54,50,94,63,42,30.24,30.16,30.09,10,10,10,13,7,18,0.00,1,,186
2014-4-14,75,67,59,61,57,52,88,71,50,30.14,30.02,29.87,10,10,10,18,9,24,0.00,3,Rain,178
2014-4-15,69,55,41,64,57,39,100,91,78,30.01,29.77,29.62,10,8,2,14,9,32,1.27,7,Rain,213
2014-4-16,51,42,32,37,28,21,93,64,35,30.48,30.32,30.01,10,10,10,16,6,25,0.00,1,,19
2014-4-17,60,45,30,41,34,28,100,70,42,30.57,30.50,30.43,10,10,10,13,4,18,0.00,0,,51
2014-4-18,60,48,35,46,38,34,100,72,48,30.49,30.38,30.26,10,9,7,10,6,,0.01,2,Rain,22
2014-4-19,51,48,44,46,44,43,100,86,71,30.26,30.20,30.17,10,8,3,13,7,21,0.45,8,Rain,26
2014-4-20,64,55,46,46,39,32,93,56,41,30.27,30.23,30.20,10,10,10,22,8,30,0.00,4,Rain,22
2014-4-21,71,55,39,43,36,32,81,56,23,30.23,30.08,29.94,10,10,4,12,5,,0.00,0,,9
2014-4-22,80,62,44,54,47,39,87,58,30,29.93,29.76,29.66,10,10,10,8,2,17,0.00,2,,230
2014-4-23,68,59,50,55,40,30,88,50,24,30.00,29.81,29.68,10,10,7,13,3,23,0.00,0,,314
2014-4-24,68,52,35,41,35,30,93,56,28,30.17,30.07,30.00,10,10,10,7,2,,0.00,0,,144
2014-4-25,78,61,44,64,54,37,100,83,54,30.03,29.86,29.65,10,9,2,18,4,39,0.40,4,Rain,192
2014-4-26,78,62,46,54,46,43,93,55,28,30.01,29.92,29.83,10,10,7,8,3,,0.00,0,,251
2014-4-27,78,64,50,55,49,43,82,55,36,30.04,29.98,29.92,10,10,10,9,4,,0.00,0,,111
2014-4-28,60,55,50,57,49,37,100,80,54,30.05,30.00,29.94,10,10,7,12,4,17,0.02,5,Rain,63
2014-4-29,64,57,50,64,55,50,100,96,88,30.05,30.00,29.95,10,4,1,9,3,,0.37,8,Rain,51
2014-4-30,75,70,64,72,67,64,100,92,83,30.05,29.99,29.92,10,8,1,16,6,25,0.54,7,Rain,170